Time;durP1;ratioP1;P1;durP2;ratioP2;P2;SDS_P1;SDS_P2;PMS_P1;PMS_P2;Temp;Humidity;BMP_temperature;BMP_pressure;BME280_temperature;BME280_humidity;BME280_pressure;Samples;Min_cycle;Max_cycle;Signal;HPM_P1;HPM_P2
2023/06/06 00:00:16;;;;;;;9.57;5.78;;;;;;;-144.73;100.00;54181.94;5051572;28;20308;-75
2023/06/06 00:02:45;;;;;;;9.23;5.22;;;;;;;-144.73;100.00;54198.34;5049933;28;20117;-75
2023/06/06 00:05:14;;;;;;;18.38;5.22;;;;;;;-144.73;100.00;54216.81;5050926;28;20035;-75
2023/06/06 00:07:43;;;;;;;8.25;4.75;;;;;;;-144.73;100.00;54235.28;5068676;28;20052;-75
2023/06/06 00:10:09;;;;;;;17.08;5.75;;;;;;;-144.73;100.00;54190.13;5069438;28;20033;-75
2023/06/06 00:12:35;;;;;;;10.65;5.53;;;;;;;-144.73;100.00;54190.13;5069076;28;20044;-75
2023/06/06 00:15:00;;;;;;;13.27;5.35;;;;;;;-144.73;100.00;54210.66;5069134;28;20104;-75
2023/06/06 00:17:26;;;;;;;13.10;5.63;;;;;;;-144.73;100.00;54227.09;5051036;28;20041;-74
2023/06/06 00:19:52;;;;;;;9.38;5.50;;;;;;;-144.73;100.00;54214.78;5051339;28;20070;-73
2023/06/06 00:22:22;;;;;;;9.02;5.57;;;;;;;-144.73;100.00;54229.13;5050493;28;20102;-73
2023/06/06 00:24:47;;;;;;;13.27;5.53;;;;;;;-144.73;100.00;54200.41;5070297;28;20024;-73
2023/06/06 00:27:13;;;;;;;9.88;5.72;;;;;;;-144.73;100.00;54202.44;5072160;28;20127;-73
2023/06/06 00:29:38;;;;;;;13.15;5.22;;;;;;;-144.73;100.00;54194.25;5054701;28;20028;-75
2023/06/06 00:32:04;;;;;;;10.90;5.20;;;;;;;-144.73;100.00;54222.97;5072157;28;20036;-73
2023/06/06 00:34:29;;;;;;;11.25;5.75;;;;;;;-144.73;100.00;54173.72;5054517;28;20020;-73
2023/06/06 00:36:54;;;;;;;17.02;6.13;;;;;;;-144.73;100.00;54251.72;5054022;28;20044;-74
2023/06/06 00:39:20;;;;;;;11.65;5.47;;;;;;;-144.73;100.00;54210.66;5054655;28;20507;-73
2023/06/06 00:41:46;;;;;;;13.88;6.90;;;;;;;-144.73;100.00;54214.78;5054665;28;20059;-74
2023/06/06 00:44:12;;;;;;;18.92;5.75;;;;;;;-144.73;100.00;54231.19;5054931;28;20056;-74
2023/06/06 00:46:38;;;;;;;10.20;5.57;;;;;;;-144.73;100.00;54161.41;5071952;28;20057;-74
2023/06/06 00:49:03;;;;;;;14.43;6.45;;;;;;;-144.73;100.00;54198.34;5054803;28;20421;-74
2023/06/06 00:51:29;;;;;;;15.77;6.35;;;;;;;-144.73;100.00;54214.78;5053706;28;20028;-74
2023/06/06 00:53:57;;;;;;;22.55;6.03;;;;;;;-144.73;100.00;54214.78;5047834;28;20090;-74
2023/06/06 00:56:28;;;;;;;14.45;6.03;;;;;;;-144.73;100.00;54218.88;5053485;28;20038;-73
2023/06/06 00:58:57;;;;;;;14.27;6.72;;;;;;;-144.73;100.00;54206.56;5071897;28;20016;-74
2023/06/06 01:01:25;;;;;;;13.63;5.53;;;;;;;-144.73;100.00;54173.72;5071528;28;20032;-74
2023/06/06 01:03:53;;;;;;;13.63;6.35;;;;;;;-144.73;100.00;54198.34;5054333;28;20044;-74
2023/06/06 01:06:22;;;;;;;13.25;6.63;;;;;;;-144.73;100.00;54218.88;5071477;28;20356;-74
2023/06/06 01:08:48;;;;;;;15.18;6.45;;;;;;;-144.73;100.00;54218.88;5053588;28;20037;-74
2023/06/06 01:11:22;;;;;;;15.93;6.65;;;;;;;-144.73;100.00;54220.94;5054151;28;20036;-74
2023/06/06 01:14:21;;;;;;;16.60;7.25;;;;;;;-144.73;100.00;54202.44;5052738;28;20040;-73
2023/06/06 01:16:52;;;;;;;15.00;6.53;;;;;;;-144.73;100.00;54239.41;5052151;28;20029;-74
2023/06/06 01:19:27;;;;;;;13.52;6.55;;;;;;;-144.73;100.00;54231.19;5053531;28;20035;-74
2023/06/06 01:21:54;;;;;;;15.43;6.32;;;;;;;-144.73;100.00;54216.81;5053099;28;20036;-74
2023/06/06 01:24:21;;;;;;;15.40;6.95;;;;;;;-144.73;100.00;54222.97;5069077;28;20046;-73
2023/06/06 01:26:46;;;;;;;13.75;6.50;;;;;;;-144.73;100.00;54194.25;5053150;28;20028;-74
2023/06/06 01:29:12;;;;;;;14.45;6.55;;;;;;;-144.73;100.00;54202.44;5053685;28;20407;-74
2023/06/06 01:31:43;;;;;;;13.55;6.65;;;;;;;-144.73;100.00;54183.97;5069518;28;20036;-74
2023/06/06 01:34:36;;;;;;;17.33;6.43;;;;;;;-144.73;100.00;54218.88;5071722;28;20529;-74
2023/06/06 01:37:35;;;;;;;16.75;7.57;;;;;;;-144.73;100.00;54251.72;5055935;28;20043;-74
2023/06/06 01:40:05;;;;;;;16.10;6.88;;;;;;;-144.73;100.00;54233.25;5051230;28;20031;-74
2023/06/06 01:42:36;;;;;;;15.50;7.53;;;;;;;-144.73;100.00;54214.78;5055388;28;20028;-74
2023/06/06 01:45:02;;;;;;;10.20;6.60;;;;;;;-144.73;100.00;54208.63;5062502;28;20066;-74
2023/06/06 01:47:28;;;;;;;16.58;7.43;;;;;;;-144.73;100.00;54235.28;5069603;28;20041;-74
2023/06/06 01:49:54;;;;;;;14.73;6.63;;;;;;;-144.73;100.00;54231.19;5052715;28;20031;-74
2023/06/06 01:52:21;;;;;;;9.32;5.80;;;;;;;-144.73;100.00;54206.56;5071043;28;20031;-75
2023/06/06 01:54:47;;;;;;;15.93;6.85;;;;;;;-144.73;100.00;54231.19;5052250;28;20029;-74
2023/06/06 01:57:12;;;;;;;11.57;6.55;;;;;;;-144.73;100.00;54198.34;5051884;28;20194;-74
2023/06/06 01:59:38;;;;;;;12.95;7.13;;;;;;;-144.73;100.00;54206.56;5071600;28;20033;-74
2023/06/06 02:02:04;;;;;;;13.05;8.30;;;;;;;-144.73;100.00;54222.97;5050732;28;20086;-74
2023/06/06 02:04:30;;;;;;;15.73;7.40;;;;;;;-144.73;100.00;54235.28;5052795;28;20113;-73
2023/06/06 02:06:56;;;;;;;13.15;7.53;;;;;;;-144.73;100.00;54210.66;5051552;28;20087;-74
2023/06/06 02:09:21;;;;;;;18.92;8.02;;;;;;;-144.73;100.00;54210.66;5053525;28;20021;-73
2023/06/06 02:11:46;;;;;;;21.15;7.85;;;;;;;-144.73;100.00;54255.81;5050967;28;20052;-73
2023/06/06 02:14:15;;;;;;;18.75;7.97;;;;;;;-144.73;100.00;54210.66;5071237;28;20043;-73
2023/06/06 02:16:45;;;;;;;13.20;7.80;;;;;;;-144.73;100.00;54251.72;5051999;28;20041;-73
2023/06/06 02:19:10;;;;;;;16.80;9.07;;;;;;;-144.73;100.00;54227.09;5052940;28;20054;-73
2023/06/06 02:21:36;;;;;;;15.10;7.75;;;;;;;-144.73;100.00;54257.88;5052127;28;20025;-74
2023/06/06 02:24:02;;;;;;;15.93;7.95;;;;;;;-144.73;100.00;54233.25;5050514;28;20021;-73
2023/06/06 02:26:28;;;;;;;14.10;8.05;;;;;;;-144.73;100.00;54247.59;5052102;28;20023;-73
2023/06/06 02:28:54;;;;;;;18.95;9.02;;;;;;;-144.73;100.00;54210.66;5052759;28;20021;-73
2023/06/06 02:31:21;;;;;;;14.75;8.50;;;;;;;-144.73;100.00;54218.88;5049270;28;20108;-74
2023/06/06 02:33:46;;;;;;;19.10;8.55;;;;;;;-144.73;100.00;54194.25;5051940;28;20024;-74
2023/06/06 02:36:14;;;;;;;16.50;8.00;;;;;;;-144.73;100.00;54247.59;5051456;28;20048;-74
2023/06/06 02:38:40;;;;;;;15.68;8.02;;;;;;;-144.73;100.00;54222.97;5051500;28;20028;-74
2023/06/06 02:41:05;;;;;;;20.63;8.27;;;;;;;-144.73;100.00;54222.97;5045989;28;20517;-73
2023/06/06 02:43:30;;;;;;;15.60;8.07;;;;;;;-144.73;100.00;54183.97;5069465;28;20141;-74
2023/06/06 02:45:56;;;;;;;19.00;8.90;;;;;;;-144.73;100.00;54210.66;5050937;28;20035;-74
2023/06/06 02:48:23;;;;;;;23.55;10.07;;;;;;;-144.73;100.00;54218.88;5069256;28;20044;-74
2023/06/06 02:50:48;;;;;;;11.07;8.43;;;;;;;-144.73;100.00;54231.19;5052520;28;20403;-74
2023/06/06 02:53:15;;;;;;;14.05;7.75;;;;;;;-144.73;100.00;54245.56;5051419;28;20033;-75
2023/06/06 02:55:40;;;;;;;14.80;8.88;;;;;;;-144.73;100.00;54243.50;5069163;28;20024;-74
2023/06/06 02:58:24;;;;;;;23.48;9.43;;;;;;;-144.73;100.00;54227.09;5070400;28;20028;-74
2023/06/06 03:00:49;;;;;;;18.00;8.40;;;;;;;-144.73;100.00;54231.19;5050137;28;20032;-74
2023/06/06 03:03:15;;;;;;;14.68;8.38;;;;;;;-144.73;100.00;54214.78;5051844;28;20044;-74
2023/06/06 03:05:40;;;;;;;18.02;8.27;;;;;;;-144.73;100.00;54204.50;5069320;28;20420;-74
2023/06/06 03:08:05;;;;;;;16.05;8.63;;;;;;;-144.73;100.00;54251.72;5050145;28;20232;-74
2023/06/06 03:10:31;;;;;;;24.25;9.18;;;;;;;-144.73;100.00;54245.56;5052092;28;20476;-75
2023/06/06 03:12:57;;;;;;;19.95;8.85;;;;;;;-144.73;100.00;54227.09;5051796;28;20037;-74
2023/06/06 03:15:22;;;;;;;26.40;10.13;;;;;;;-144.73;100.00;54247.59;5051452;28;20028;-75
2023/06/06 03:17:48;;;;;;;20.05;9.27;;;;;;;-144.73;100.00;54231.19;5051117;28;20066;-74
2023/06/06 03:20:13;;;;;;;17.25;9.27;;;;;;;-144.73;100.00;54255.81;5070255;28;20120;-75
2023/06/06 03:22:39;;;;;;;25.05;9.27;;;;;;;-144.73;100.00;54235.28;5069166;28;20024;-74
2023/06/06 03:25:05;;;;;;;18.38;8.93;;;;;;;-144.73;100.00;54300.97;5051519;28;20020;-74
2023/06/06 03:27:30;;;;;;;22.95;10.32;;;;;;;-144.73;100.00;54208.63;5051234;28;20044;-74
2023/06/06 03:29:55;;;;;;;24.45;9.55;;;;;;;-144.73;100.00;54255.81;5050239;28;20028;-74
2023/06/06 03:32:21;;;;;;;18.23;8.73;;;;;;;-144.73;100.00;54235.28;5068871;28;20037;-74
2023/06/06 03:34:48;;;;;;;17.08;9.40;;;;;;;-144.73;100.00;54210.66;5049333;28;20118;-73
2023/06/06 03:37:13;;;;;;;13.68;8.65;;;;;;;-144.73;100.00;54239.41;5068598;28;20202;-73
2023/06/06 03:39:39;;;;;;;15.48;8.68;;;;;;;-144.73;100.00;54227.09;5051010;28;20527;-73
2023/06/06 03:42:05;;;;;;;18.30;9.98;;;;;;;-144.73;100.00;54227.09;5049303;28;20033;-73
2023/06/06 03:44:30;;;;;;;18.70;9.15;;;;;;;-144.73;100.00;54243.50;5051709;28;20514;-74
2023/06/06 03:46:55;;;;;;;21.73;9.80;;;;;;;-144.73;100.00;54218.88;5050540;28;20032;-74
2023/06/06 03:49:21;;;;;;;21.17;9.77;;;;;;;-144.73;100.00;54276.34;5049582;28;20033;-74
2023/06/06 03:51:46;;;;;;;14.23;9.32;;;;;;;-144.73;100.00;54214.78;5069140;28;20081;-73
2023/06/06 03:54:12;;;;;;;17.13;9.05;;;;;;;-144.73;100.00;54222.97;5051733;28;20029;-73
2023/06/06 03:56:40;;;;;;;22.75;9.35;;;;;;;-144.73;100.00;54253.75;5050946;28;20086;-73
2023/06/06 03:59:11;;;;;;;18.45;9.93;;;;;;;-144.73;100.00;54214.78;5050217;28;20055;-73
2023/06/06 04:01:36;;;;;;;16.55;9.48;;;;;;;-144.73;100.00;54243.50;5055326;28;20075;-73
2023/06/06 04:04:02;;;;;;;18.58;9.98;;;;;;;-144.73;100.00;54276.34;5055794;28;20020;-73
2023/06/06 04:06:27;;;;;;;18.90;10.55;;;;;;;-144.73;100.00;54231.19;5052237;28;20051;-73
2023/06/06 04:08:52;;;;;;;26.45;9.75;;;;;;;-144.73;100.00;54247.59;5055006;28;20025;-74
2023/06/06 04:11:18;;;;;;;19.25;10.25;;;;;;;-144.73;100.00;54241.44;5051441;28;20017;-74
2023/06/06 04:13:43;;;;;;;21.05;9.23;;;;;;;-144.73;100.00;54222.97;5050890;28;20047;-74
2023/06/06 04:16:08;;;;;;;16.33;9.32;;;;;;;-144.73;100.00;54227.09;5054049;28;20029;-74
2023/06/06 04:18:34;;;;;;;19.00;9.90;;;;;;;-144.73;100.00;54255.81;5054571;28;20116;-74
2023/06/06 04:20:59;;;;;;;14.32;8.65;;;;;;;-144.73;100.00;54231.19;5055248;28;20039;-73
2023/06/06 04:23:25;;;;;;;16.90;9.02;;;;;;;-144.73;100.00;54342.03;5072673;28;20047;-74
2023/06/06 04:25:50;;;;;;;14.85;9.00;;;;;;;-144.73;100.00;54227.09;5052924;28;20063;-74
2023/06/06 04:28:18;;;;;;;15.73;8.18;;;;;;;-144.73;100.00;54239.41;5072469;28;20060;-74
2023/06/06 04:30:46;;;;;;;19.60;9.57;;;;;;;-144.73;100.00;54255.81;5051712;28;20043;-73
2023/06/06 04:33:12;;;;;;;14.50;9.05;;;;;;;-144.73;100.00;54247.59;5053665;28;20047;-74
2023/06/06 04:35:42;;;;;;;17.02;9.25;;;;;;;-144.73;100.00;54261.97;5054768;28;20032;-74
2023/06/06 04:38:08;;;;;;;19.27;9.30;;;;;;;-144.73;100.00;54257.88;5052838;28;20036;-73
2023/06/06 04:40:34;;;;;;;22.88;8.80;;;;;;;-144.73;100.00;54237.34;5054138;28;20078;-73
2023/06/06 04:43:01;;;;;;;15.93;8.20;;;;;;;-144.73;100.00;54247.59;5053934;28;20036;-74
2023/06/06 04:45:26;;;;;;;11.95;8.48;;;;;;;-144.73;100.00;54239.41;5052297;28;20392;-73
2023/06/06 04:47:55;;;;;;;17.17;8.23;;;;;;;-144.73;100.00;54257.88;5054143;28;20039;-73
2023/06/06 04:50:20;;;;;;;15.43;8.70;;;;;;;-144.73;100.00;54259.91;5072795;28;20027;-74
2023/06/06 04:52:46;;;;;;;18.95;8.52;;;;;;;-144.73;100.00;54249.66;5053444;28;20112;-74
2023/06/06 04:55:12;;;;;;;20.25;10.30;;;;;;;-144.73;100.00;54243.50;5057756;28;20112;-74
2023/06/06 04:57:37;;;;;;;21.25;11.52;;;;;;;-144.73;100.00;54210.66;5073220;28;20036;-74
2023/06/06 05:00:05;;;;;;;16.25;8.65;;;;;;;-144.73;100.00;54288.66;5062511;28;20031;-74
2023/06/06 05:02:31;;;;;;;24.15;8.02;;;;;;;-144.73;100.00;54245.56;5054171;28;20037;-74
2023/06/06 05:04:58;;;;;;;15.35;7.53;;;;;;;-144.73;100.00;54247.59;5053736;28;20074;-74
2023/06/06 05:07:24;;;;;;;18.33;7.78;;;;;;;-144.73;100.00;54253.75;5053469;28;20395;-74
2023/06/06 05:09:55;;;;;;;14.85;7.90;;;;;;;-144.73;100.00;54268.13;5071907;28;20028;-74
2023/06/06 05:12:22;;;;;;;21.52;7.80;;;;;;;-144.73;100.00;54237.34;5067539;28;20507;-74
2023/06/06 05:14:48;;;;;;;14.40;7.53;;;;;;;-144.73;100.00;54233.25;5051033;28;20029;-74
2023/06/06 05:17:17;;;;;;;30.23;7.95;;;;;;;-144.73;100.00;54245.56;5053001;28;20041;-74
2023/06/06 05:19:44;;;;;;;13.23;7.22;;;;;;;-144.73;100.00;54218.88;5053821;28;20046;-74
2023/06/06 05:22:09;;;;;;;17.50;6.57;;;;;;;-144.73;100.00;54259.91;5071113;28;20036;-74
2023/06/06 05:24:35;;;;;;;13.32;7.45;;;;;;;-144.73;100.00;54251.72;5071317;28;20020;-74
2023/06/06 05:27:00;;;;;;;19.63;7.55;;;;;;;-144.73;100.00;54222.97;5070879;28;20039;-73
2023/06/06 05:29:26;;;;;;;19.95;7.22;;;;;;;-144.73;100.00;54214.78;5071268;28;20028;-74
2023/06/06 05:31:52;;;;;;;16.75;6.47;;;;;;;-144.73;100.00;54255.81;5050646;28;20025;-74
2023/06/06 05:34:17;;;;;;;14.88;6.20;;;;;;;-144.73;99.23;54313.28;5053111;28;20024;-74
2023/06/06 05:36:43;;;;;;;10.63;6.90;;;;;;;-144.73;97.89;54198.34;5046098;28;20037;-73
2023/06/06 05:39:08;;;;;;;11.02;6.68;;;;;;;-144.73;96.10;54247.59;5053008;28;20085;-75
2023/06/06 05:41:33;;;;;;;14.10;5.53;;;;;;;-144.73;95.93;54239.41;5052681;28;20032;-74
2023/06/06 05:43:58;;;;;;;13.50;5.85;;;;;;;-144.73;97.04;54231.19;5052836;28;20020;-75
2023/06/06 05:46:25;;;;;;;16.73;5.90;;;;;;;-144.73;95.77;54243.50;5052826;28;20046;-74
2023/06/06 05:48:51;;;;;;;13.60;5.40;;;;;;;-144.73;95.49;54243.50;5053270;28;20044;-74
2023/06/06 05:51:16;;;;;;;14.43;5.68;;;;;;;-144.73;95.02;54251.72;5070743;28;20063;-74
2023/06/06 05:53:44;;;;;;;18.60;5.75;;;;;;;-144.73;94.52;54218.88;5070690;28;20067;-74
2023/06/06 05:56:11;;;;;;;12.05;4.88;;;;;;;-144.73;93.29;54235.28;5052926;28;20036;-74
2023/06/06 05:58:36;;;;;;;11.77;5.50;;;;;;;-144.73;91.43;54231.19;5052479;28;20037;-74
2023/06/06 06:01:02;;;;;;;15.00;4.85;;;;;;;-144.73;90.05;54247.59;5070526;28;20020;-74
2023/06/06 06:03:28;;;;;;;15.90;4.63;;;;;;;-144.73;87.68;54231.19;5073106;28;20029;-74
2023/06/06 06:06:04;;;;;;;14.50;5.50;;;;;;;-144.73;87.23;54243.50;5052377;28;20017;-74
2023/06/06 06:08:31;;;;;;;11.68;4.90;;;;;;;-144.73;86.63;54210.66;5052494;28;20043;-74
2023/06/06 06:10:56;;;;;;;16.77;4.72;;;;;;;-144.73;86.77;54251.72;5052977;28;20363;-74
2023/06/06 06:13:22;;;;;;;10.45;4.13;;;;;;;-144.73;85.23;54210.66;5049623;28;20045;-76
2023/06/06 06:15:47;;;;;;;13.55;4.60;;;;;;;-144.73;85.08;54210.66;5052073;28;20055;-74
2023/06/06 06:18:13;;;;;;;15.77;4.72;;;;;;;-144.73;83.18;54239.41;5051303;28;20043;-74
2023/06/06 06:20:38;;;;;;;9.82;4.80;;;;;;;-144.73;82.62;54241.44;5052053;28;20055;-74
2023/06/06 06:23:04;;;;;;;17.00;4.63;;;;;;;-144.73;81.69;54227.09;5050855;28;20128;-74
2023/06/06 06:25:29;;;;;;;7.90;4.28;;;;;;;-144.73;80.59;54220.94;5050737;28;20017;-74
2023/06/06 06:27:55;;;;;;;8.98;4.05;;;;;;;-144.73;79.99;54210.66;5051147;28;20044;-74
2023/06/06 06:30:20;;;;;;;12.48;4.57;;;;;;;-144.73;78.70;54235.28;5052459;28;20016;-74
2023/06/06 06:32:46;;;;;;;10.27;4.65;;;;;;;-144.73;77.82;54204.50;5049783;28;20025;-74
2023/06/06 06:35:11;;;;;;;11.32;3.42;;;;;;;-144.73;77.14;54255.81;5048434;28;20123;-75
2023/06/06 06:37:37;;;;;;;24.77;7.97;;;;;;;-144.73;76.76;54251.72;5069966;28;20128;-71
2023/06/06 06:40:17;;;;;;;51.45;8.75;;;;;;;-144.73;76.03;54210.66;5052993;28;20029;-71
2023/06/06 06:42:46;;;;;;;27.10;4.70;;;;;;;-144.73;76.40;54231.19;5065768;28;20120;-71
2023/06/06 06:45:13;;;;;;;11.63;4.57;;;;;;;-144.73;77.21;54239.41;5052345;28;20040;-70
2023/06/06 06:47:39;;;;;;;17.92;4.70;;;;;;;-144.73;75.86;54235.28;5050902;28;20044;-70
2023/06/06 06:50:06;;;;;;;14.48;5.30;;;;;;;-144.73;76.18;54198.34;5050675;28;20036;-70
2023/06/06 06:52:35;;;;;;;19.17;5.72;;;;;;;-144.73;75.68;54210.66;5069627;28;20127;-70
2023/06/06 06:55:03;;;;;;;15.50;4.30;;;;;;;-144.73;75.17;54229.13;5049207;28;20016;-70
2023/06/06 06:57:29;;;;;;;14.18;4.28;;;;;;;-144.73;74.46;54210.66;5062572;28;20041;-70
2023/06/06 07:00:13;;;;;;;8.68;4.07;;;;;;;-144.73;73.91;54206.56;5059440;28;20023;-70
2023/06/06 07:02:44;;;;;;;18.67;8.07;;;;;;;-144.73;73.31;54222.97;5052324;28;20079;-70
2023/06/06 07:05:10;;;;;;;12.35;5.15;;;;;;;-144.73;75.11;54218.88;5053007;28;20040;-70
2023/06/06 07:08:02;;;;;;;10.32;4.13;;;;;;;-144.73;73.02;54204.50;5052365;28;20039;-70
2023/06/06 07:10:31;;;;;;;9.35;4.43;;;;;;;-144.73;72.45;54255.81;5049258;28;20033;-71
2023/06/06 07:12:57;;;;;;;22.63;5.85;;;;;;;-144.73;72.22;54243.50;5052128;28;20040;-71
2023/06/06 07:15:22;;;;;;;15.80;4.38;;;;;;;-144.73;70.41;54214.78;5069454;28;20518;-72
2023/06/06 07:17:50;;;;;;;13.68;3.58;;;;;;;-144.73;68.81;54190.13;5069920;28;20036;-71
2023/06/06 07:20:18;;;;;;;15.63;3.80;;;;;;;-144.73;66.17;54235.28;5069803;28;20035;-70
2023/06/06 07:22:43;;;;;;;13.20;4.22;;;;;;;-144.73;67.83;54251.72;5047991;28;20120;-71
2023/06/06 07:25:09;;;;;;;20.77;5.30;;;;;;;-144.73;68.16;54206.56;5051648;28;20044;-71
2023/06/06 07:27:36;;;;;;;10.48;4.03;;;;;;;-144.73;66.22;54177.81;5052259;28;20033;-70
2023/06/06 07:30:12;;;;;;;10.45;3.78;;;;;;;-144.73;64.88;54190.13;5070264;28;20047;-73
2023/06/06 07:32:38;;;;;;;7.47;3.88;;;;;;;-144.73;64.08;54165.50;5073114;28;20036;-74
2023/06/06 07:35:04;;;;;;;7.43;3.55;;;;;;;-144.73;63.71;54210.66;5067765;28;20111;-74
2023/06/06 07:37:29;;;;;;;8.50;3.47;;;;;;;-144.73;64.23;54210.66;5063009;28;20112;-74
2023/06/06 07:39:55;;;;;;;9.10;4.13;;;;;;;-144.73;62.49;54194.25;5065673;28;20028;-75
2023/06/06 07:42:20;;;;;;;11.98;3.97;;;;;;;-144.73;62.09;54194.25;5053847;28;20090;-74
2023/06/06 07:44:46;;;;;;;5.97;3.60;;;;;;;-144.73;60.11;54214.78;5052515;28;20025;-74
2023/06/06 07:47:12;;;;;;;8.45;3.75;;;;;;;-144.73;60.52;54202.44;5050686;28;20033;-74
2023/06/06 07:49:37;;;;;;;16.70;4.05;;;;;;;-144.73;59.83;54173.72;5050976;28;20511;-74
2023/06/06 07:52:03;;;;;;;13.25;4.45;;;;;;;-144.73;59.73;54161.41;5051034;28;20055;-74
2023/06/06 07:54:28;;;;;;;9.73;3.97;;;;;;;-144.73;59.08;54159.34;5070017;28;20031;-74
2023/06/06 07:56:54;;;;;;;17.92;3.70;;;;;;;-144.73;59.31;54165.50;5048388;28;20037;-74
2023/06/06 07:59:21;;;;;;;9.90;3.78;;;;;;;-144.73;56.89;54145.00;5045016;28;20021;-74
2023/06/06 08:01:47;;;;;;;8.77;3.95;;;;;;;-144.73;59.28;54153.19;5050556;28;20109;-74
2023/06/06 08:04:12;;;;;;;12.07;3.70;;;;;;;-144.73;57.90;54136.78;5050831;28;20052;-74
2023/06/06 08:06:37;;;;;;;14.45;3.75;;;;;;;-144.73;57.36;54190.13;5068263;28;20175;-75
2023/06/06 08:09:06;;;;;;;7.95;3.60;;;;;;;-144.73;54.24;54181.94;5068651;28;20088;-75
2023/06/06 08:11:33;;;;;;;10.30;3.40;;;;;;;-144.73;53.45;54145.00;5068650;28;20475;-74
2023/06/06 08:13:58;;;;;;;17.52;3.95;;;;;;;-144.73;53.22;54161.41;5048147;28;20027;-74
2023/06/06 08:16:24;;;;;;;8.27;3.38;;;;;;;-144.73;52.90;54149.09;5050175;28;20029;-74
2023/06/06 08:18:49;;;;;;;6.90;3.03;;;;;;;-144.73;51.60;54161.41;5051056;28;20009;-74
2023/06/06 08:21:15;;;;;;;7.85;3.20;;;;;;;-144.73;51.65;54145.00;5069045;28;20401;-73
2023/06/06 08:23:40;;;;;;;9.25;3.60;;;;;;;-144.73;50.65;54188.09;5050157;28;20024;-74
2023/06/06 08:26:05;;;;;;;7.72;4.03;;;;;;;-144.73;48.95;54161.41;5049046;28;20020;-73
2023/06/06 08:28:32;;;;;;;8.75;3.58;;;;;;;-144.73;50.09;54147.03;5050528;28;20395;-74
2023/06/06 08:30:57;;;;;;;14.35;3.83;;;;;;;-144.73;48.60;54165.50;5049281;28;20021;-74
2023/06/06 08:33:23;;;;;;;10.38;3.75;;;;;;;-144.73;48.22;54169.63;5050573;28;20117;-75
2023/06/06 08:35:48;;;;;;;14.55;3.90;;;;;;;-144.73;47.61;54159.34;5069193;28;20479;-75
2023/06/06 08:38:15;;;;;;;5.65;3.13;;;;;;;-144.73;47.11;54153.19;5068042;28;20048;-75
2023/06/06 08:40:41;;;;;;;7.90;3.35;;;;;;;-144.73;47.22;54116.25;5050632;28;20042;-75
2023/06/06 08:43:15;;;;;;;8.30;3.47;;;;;;;-144.73;46.23;54149.09;5050280;28;20029;-75
2023/06/06 08:45:47;;;;;;;10.70;3.35;;;;;;;-144.73;45.61;54145.00;5051567;28;20029;-76
2023/06/06 08:48:14;;;;;;;6.10;2.70;;;;;;;-144.73;44.48;54145.00;5053435;28;20119;-76
2023/06/06 08:50:41;;;;;;;9.73;3.67;;;;;;;-144.73;44.32;54145.00;5053923;28;20095;-76
2023/06/06 08:53:07;;;;;;;7.63;2.83;;;;;;;-144.73;44.85;54124.47;5053880;28;20031;-76
2023/06/06 08:55:37;;;;;;;8.48;2.95;;;;;;;-144.73;43.99;54181.94;5072041;28;20096;-76
2023/06/06 08:58:03;;;;;;;7.30;3.00;;;;;;;-144.73;44.14;54103.94;5053381;28;20083;-76
2023/06/06 09:00:29;;;;;;;15.75;3.42;;;;;;;-144.73;42.77;54132.69;5054595;28;20119;-76
2023/06/06 09:02:56;;;;;;;9.40;3.30;;;;;;;-144.73;41.15;54145.00;5050314;28;20033;-76
2023/06/06 09:05:21;;;;;;;7.35;3.50;;;;;;;-144.73;40.83;54081.38;5053564;28;20020;-76
2023/06/06 09:07:48;;;;;;;3.75;2.45;;;;;;;-144.73;40.73;54145.00;5053900;28;20029;-76
2023/06/06 09:10:14;;;;;;;10.43;3.15;;;;;;;-144.73;40.79;54145.00;5071659;28;20076;-76
2023/06/06 09:12:44;;;;;;;7.72;3.20;;;;;;;-144.73;42.33;54169.63;5071377;28;20051;-75
2023/06/06 09:15:10;;;;;;;6.03;3.03;;;;;;;-144.73;40.77;54157.31;5053225;28;20012;-76
2023/06/06 09:17:36;;;;;;;12.85;3.15;;;;;;;-144.73;41.40;54177.81;5053481;28;20040;-76
2023/06/06 09:20:14;;;;;;;14.43;3.65;;;;;;;-144.73;40.77;54114.19;5053833;28;20278;-76
2023/06/06 09:22:41;;;;;;;5.97;2.88;;;;;;;-144.73;39.90;54153.19;5053145;28;20036;-76
2023/06/06 09:25:17;;;;;;;6.93;3.45;;;;;;;-144.73;39.31;54116.25;5053169;28;20086;-76
2023/06/06 09:27:42;;;;;;;6.28;3.40;;;;;;;-144.73;38.97;54145.00;5053741;28;20029;-76
2023/06/06 09:30:29;;;;;;;7.43;2.85;;;;;;;-144.73;40.44;54124.47;5053407;28;20551;-75
2023/06/06 09:33:00;;;;;;;8.88;2.80;;;;;;;-144.73;39.68;54116.25;5049716;28;20029;-76
2023/06/06 09:35:32;;;;;;;4.05;3.20;;;;;;;-144.73;39.10;54132.69;5053434;28;20100;-76
2023/06/06 09:38:15;;;;;;;11.68;3.53;;;;;;;-144.73;38.37;54153.19;5071304;28;20024;-76
2023/06/06 09:40:45;;;;;;;9.55;3.40;;;;;;;-144.73;37.66;54120.34;5053602;28;20052;-76
2023/06/06 09:43:11;;;;;;;7.10;2.63;;;;;;;-144.73;36.55;54128.56;5070879;28;20040;-76
2023/06/06 09:45:48;;;;;;;10.52;3.70;;;;;;;-144.73;37.18;54122.41;5071217;28;20024;-76
2023/06/06 09:48:20;;;;;;;13.00;3.35;;;;;;;-144.73;37.51;54110.09;5052830;28;20048;-75
2023/06/06 09:50:45;;;;;;;9.07;3.20;;;;;;;-144.73;37.87;54134.72;5049210;28;20016;-75
2023/06/06 09:53:14;;;;;;;8.32;3.30;;;;;;;-144.73;36.69;54099.84;5052595;28;20044;-77
2023/06/06 09:55:40;;;;;;;11.88;4.82;;;;;;;-144.73;36.12;54103.94;5053710;28;20376;-77
2023/06/06 09:58:08;;;;;;;8.95;2.90;;;;;;;-144.73;36.39;54087.53;5069994;28;20116;-77
2023/06/06 10:00:37;;;;;;;7.65;2.85;;;;;;;-144.73;36.98;54097.78;5053912;28;20127;-77
2023/06/06 10:03:04;;;;;;;11.68;3.05;;;;;;;-144.73;37.44;54095.72;5052532;28;20375;-77
2023/06/06 10:05:30;;;;;;;9.25;3.40;;;;;;;-144.73;36.53;54103.94;5052794;28;20024;-77
2023/06/06 10:07:56;;;;;;;8.48;3.17;;;;;;;-144.73;37.41;54145.00;5052555;28;20566;-76
2023/06/06 10:10:22;;;;;;;7.97;3.15;;;;;;;-144.73;37.29;54116.25;5052980;28;20127;-76
2023/06/06 10:12:48;;;;;;;6.78;3.15;;;;;;;-144.73;36.80;54120.34;5052780;28;20123;-74
2023/06/06 10:15:14;;;;;;;13.93;3.67;;;;;;;-144.73;36.56;54145.00;5053564;28;20523;-74
2023/06/06 10:17:41;;;;;;;9.57;3.20;;;;;;;-144.73;36.56;54145.00;5052518;28;20033;-75
2023/06/06 10:20:12;;;;;;;7.20;3.30;;;;;;;-144.73;35.91;54128.56;5071073;28;20020;-77
2023/06/06 10:22:41;;;;;;;9.03;2.80;;;;;;;-144.73;35.42;54046.47;5070482;28;20040;-75
2023/06/06 10:25:12;;;;;;;11.15;3.22;;;;;;;-144.73;36.35;54124.47;5053455;28;20016;-75
2023/06/06 10:27:54;;;;;;;5.20;2.67;;;;;;;-144.73;36.25;54103.94;5071173;28;20028;-74
2023/06/06 10:30:42;;;;;;;5.57;2.85;;;;;;;-144.73;35.66;54103.94;5070459;28;20020;-75
2023/06/06 10:33:33;;;;;;;7.78;3.05;;;;;;;-144.73;35.40;54108.03;5050376;28;20039;-75
2023/06/06 10:36:03;;;;;;;6.50;2.88;;;;;;;-144.73;34.91;54132.69;5047868;28;20028;-75
2023/06/06 10:38:29;;;;;;;9.82;3.03;;;;;;;-144.73;35.17;54124.47;5052386;28;20024;-75
2023/06/06 10:40:56;;;;;;;6.03;3.60;;;;;;;-144.73;35.30;54108.03;5053196;28;20029;-75
2023/06/06 10:43:34;;;;;;;6.57;3.03;;;;;;;-144.73;34.42;54083.41;5052552;28;20051;-75
2023/06/06 10:45:59;;;;;;;9.50;3.42;;;;;;;-144.73;34.86;54099.84;5053730;28;20037;-75
2023/06/06 10:48:37;;;;;;;11.80;3.30;;;;;;;-144.73;35.15;54120.34;5070563;28;20395;-75
2023/06/06 10:51:03;;;;;;;11.40;3.30;;;;;;;-144.73;34.52;54145.00;5075931;28;20032;-75
2023/06/06 10:53:29;;;;;;;7.05;3.47;;;;;;;-144.73;34.31;54083.41;5053251;28;20028;-75
2023/06/06 10:55:54;;;;;;;6.25;3.13;;;;;;;-144.73;34.82;54114.19;5070627;28;20029;-75
2023/06/06 10:58:28;;;;;;;11.15;2.75;;;;;;;-144.73;34.48;54112.16;5070117;28;20043;-75
2023/06/06 11:01:02;;;;;;;11.02;2.90;;;;;;;-144.73;33.95;54112.16;5070425;28;20027;-74
2023/06/06 11:03:37;;;;;;;13.55;3.42;;;;;;;-144.73;34.21;54083.41;5065132;28;20059;-74
2023/06/06 11:06:14;;;;;;;10.35;3.60;;;;;;;-144.73;33.03;54087.53;5070786;28;20020;-75
2023/06/06 11:08:42;;;;;;;8.27;2.65;;;;;;;-144.73;33.25;54112.16;5069196;28;20035;-77